sensor_id;sensor_type;location;lat;lon;timestamp;P1;durP1;ratioP1;P2;durP2;ratioP2
39314;SDS011;28703;44.412;11.918;2023-11-21T00:01:59;80.63;;;64.50;;
39314;SDS011;28703;44.412;11.918;2023-11-21T00:04:25;75.75;;;62.97;;
39314;SDS011;28703;44.412;11.918;2023-11-21T00:06:52;75.70;;;62.75;;
39314;SDS011;28703;44.412;11.918;2023-11-21T00:09:19;79.90;;;64.57;;
39314;SDS011;28703;44.412;11.918;2023-11-21T00:11:45;76.22;;;65.13;;
39314;SDS011;28703;44.412;11.918;2023-11-21T00:14:11;74.90;;;63.25;;
39314;SDS011;28703;44.412;11.918;2023-11-21T00:16:37;75.72;;;62.58;;
39314;SDS011;28703;44.412;11.918;2023-11-21T00:19:04;77.68;;;63.60;;
39314;SDS011;28703;44.412;11.918;2023-11-21T00:21:30;75.50;;;64.28;;
39314;SDS011;28703;44.412;11.918;2023-11-21T00:23:56;77.90;;;64.78;;
39314;SDS011;28703;44.412;11.918;2023-11-21T00:26:22;78.47;;;65.45;;
39314;SDS011;28703;44.412;11.918;2023-11-21T00:28:58;76.63;;;64.22;;
39314;SDS011;28703;44.412;11.918;2023-11-21T00:31:25;78.72;;;66.47;;
39314;SDS011;28703;44.412;11.918;2023-11-21T00:33:50;78.43;;;64.85;;
39314;SDS011;28703;44.412;11.918;2023-11-21T00:36:16;71.13;;;61.50;;
39314;SDS011;28703;44.412;11.918;2023-11-21T00:38:43;75.47;;;65.35;;
39314;SDS011;28703;44.412;11.918;2023-11-21T00:41:09;80.47;;;66.15;;
39314;SDS011;28703;44.412;11.918;2023-11-21T00:43:34;79.80;;;66.63;;
39314;SDS011;28703;44.412;11.918;2023-11-21T00:46:03;73.13;;;63.47;;
39314;SDS011;28703;44.412;11.918;2023-11-21T00:48:32;78.25;;;64.50;;
39314;SDS011;28703;44.412;11.918;2023-11-21T00:50:58;77.43;;;63.72;;
39314;SDS011;28703;44.412;11.918;2023-11-21T00:53:24;79.43;;;64.65;;
39314;SDS011;28703;44.412;11.918;2023-11-21T00:55:50;82.30;;;66.03;;
39314;SDS011;28703;44.412;11.918;2023-11-21T00:58:17;77.68;;;64.97;;
39314;SDS011;28703;44.412;11.918;2023-11-21T01:00:43;73.05;;;62.47;;
39314;SDS011;28703;44.412;11.918;2023-11-21T01:03:09;79.70;;;65.15;;
39314;SDS011;28703;44.412;11.918;2023-11-21T01:05:34;83.68;;;67.88;;
39314;SDS011;28703;44.412;11.918;2023-11-21T01:08:00;78.28;;;66.15;;
39314;SDS011;28703;44.412;11.918;2023-11-21T01:10:26;86.30;;;65.47;;
39314;SDS011;28703;44.412;11.918;2023-11-21T01:12:52;77.57;;;65.30;;
39314;SDS011;28703;44.412;11.918;2023-11-21T01:15:18;77.88;;;63.47;;
39314;SDS011;28703;44.412;11.918;2023-11-21T01:17:44;82.90;;;66.05;;
39314;SDS011;28703;44.412;11.918;2023-11-21T01:20:10;75.75;;;64.20;;
39314;SDS011;28703;44.412;11.918;2023-11-21T01:22:38;73.85;;;62.20;;
39314;SDS011;28703;44.412;11.918;2023-11-21T01:25:04;71.32;;;61.13;;
39314;SDS011;28703;44.412;11.918;2023-11-21T01:27:33;73.72;;;61.90;;
39314;SDS011;28703;44.412;11.918;2023-11-21T01:29:59;78.03;;;61.33;;
39314;SDS011;28703;44.412;11.918;2023-11-21T01:32:26;74.93;;;62.13;;
39314;SDS011;28703;44.412;11.918;2023-11-21T01:34:53;71.97;;;61.20;;
39314;SDS011;28703;44.412;11.918;2023-11-21T01:37:22;71.70;;;58.90;;
39314;SDS011;28703;44.412;11.918;2023-11-21T01:39:48;73.78;;;59.63;;
39314;SDS011;28703;44.412;11.918;2023-11-21T01:42:14;73.03;;;61.83;;
39314;SDS011;28703;44.412;11.918;2023-11-21T01:44:41;78.53;;;60.47;;
39314;SDS011;28703;44.412;11.918;2023-11-21T01:47:07;78.22;;;60.78;;
39314;SDS011;28703;44.412;11.918;2023-11-21T01:49:34;68.95;;;59.55;;
39314;SDS011;28703;44.412;11.918;2023-11-21T01:52:00;70.05;;;59.47;;
39314;SDS011;28703;44.412;11.918;2023-11-21T01:54:27;70.78;;;58.10;;
39314;SDS011;28703;44.412;11.918;2023-11-21T01:56:57;77.85;;;63.20;;
39314;SDS011;28703;44.412;11.918;2023-11-21T01:59:29;75.20;;;61.60;;
39314;SDS011;28703;44.412;11.918;2023-11-21T02:02:00;73.10;;;61.22;;
39314;SDS011;28703;44.412;11.918;2023-11-21T02:04:26;71.32;;;58.53;;
39314;SDS011;28703;44.412;11.918;2023-11-21T02:06:52;75.90;;;61.40;;
39314;SDS011;28703;44.412;11.918;2023-11-21T02:09:29;75.20;;;62.33;;
39314;SDS011;28703;44.412;11.918;2023-11-21T02:11:56;71.35;;;61.83;;
39314;SDS011;28703;44.412;11.918;2023-11-21T02:14:24;82.63;;;63.65;;
39314;SDS011;28703;44.412;11.918;2023-11-21T02:16:56;75.20;;;63.00;;
39314;SDS011;28703;44.412;11.918;2023-11-21T02:19:22;77.32;;;62.58;;
39314;SDS011;28703;44.412;11.918;2023-11-21T02:21:51;74.78;;;62.78;;
39314;SDS011;28703;44.412;11.918;2023-11-21T02:24:18;72.60;;;61.40;;
39314;SDS011;28703;44.412;11.918;2023-11-21T02:26:45;72.35;;;59.22;;
39314;SDS011;28703;44.412;11.918;2023-11-21T02:29:11;81.30;;;61.90;;
39314;SDS011;28703;44.412;11.918;2023-11-21T02:31:39;80.60;;;60.40;;
39314;SDS011;28703;44.412;11.918;2023-11-21T02:34:16;74.40;;;61.50;;
39314;SDS011;28703;44.412;11.918;2023-11-21T02:36:43;70.65;;;59.63;;
39314;SDS011;28703;44.412;11.918;2023-11-21T02:39:10;72.63;;;59.75;;
39314;SDS011;28703;44.412;11.918;2023-11-21T02:41:37;70.05;;;59.85;;
39314;SDS011;28703;44.412;11.918;2023-11-21T02:44:04;78.13;;;62.60;;
39314;SDS011;28703;44.412;11.918;2023-11-21T02:46:31;76.07;;;62.97;;
39314;SDS011;28703;44.412;11.918;2023-11-21T02:49:00;81.93;;;60.45;;
39314;SDS011;28703;44.412;11.918;2023-11-21T02:51:26;78.78;;;62.92;;
39314;SDS011;28703;44.412;11.918;2023-11-21T02:53:52;68.35;;;60.30;;
39314;SDS011;28703;44.412;11.918;2023-11-21T02:56:18;71.35;;;60.78;;
39314;SDS011;28703;44.412;11.918;2023-11-21T02:58:44;75.25;;;59.97;;
39314;SDS011;28703;44.412;11.918;2023-11-21T03:01:10;68.90;;;58.95;;
39314;SDS011;28703;44.412;11.918;2023-11-21T03:03:36;68.72;;;57.90;;
39314;SDS011;28703;44.412;11.918;2023-11-21T03:06:06;71.18;;;60.20;;
39314;SDS011;28703;44.412;11.918;2023-11-21T03:08:32;73.00;;;61.45;;
39314;SDS011;28703;44.412;11.918;2023-11-21T03:10:58;74.78;;;61.10;;
39314;SDS011;28703;44.412;11.918;2023-11-21T03:13:23;77.03;;;63.53;;
39314;SDS011;28703;44.412;11.918;2023-11-21T03:15:49;72.43;;;62.72;;
39314;SDS011;28703;44.412;11.918;2023-11-21T03:18:15;80.45;;;64.93;;
39314;SDS011;28703;44.412;11.918;2023-11-21T03:20:42;75.72;;;61.53;;
39314;SDS011;28703;44.412;11.918;2023-11-21T03:23:11;76.57;;;61.85;;
39314;SDS011;28703;44.412;11.918;2023-11-21T03:25:37;78.03;;;62.08;;
39314;SDS011;28703;44.412;11.918;2023-11-21T03:28:03;75.97;;;61.92;;
39314;SDS011;28703;44.412;11.918;2023-11-21T03:30:29;73.75;;;60.00;;
39314;SDS011;28703;44.412;11.918;2023-11-21T03:32:55;73.00;;;59.97;;
39314;SDS011;28703;44.412;11.918;2023-11-21T03:35:21;70.35;;;56.72;;
39314;SDS011;28703;44.412;11.918;2023-11-21T03:37:48;71.65;;;58.60;;
39314;SDS011;28703;44.412;11.918;2023-11-21T03:40:14;74.32;;;57.63;;
39314;SDS011;28703;44.412;11.918;2023-11-21T03:42:39;72.68;;;61.13;;
39314;SDS011;28703;44.412;11.918;2023-11-21T03:45:06;75.10;;;59.60;;
39314;SDS011;28703;44.412;11.918;2023-11-21T03:47:32;69.97;;;57.97;;
39314;SDS011;28703;44.412;11.918;2023-11-21T03:49:58;75.78;;;58.67;;
39314;SDS011;28703;44.412;11.918;2023-11-21T03:52:24;73.28;;;59.97;;
39314;SDS011;28703;44.412;11.918;2023-11-21T03:54:51;75.78;;;57.75;;
39314;SDS011;28703;44.412;11.918;2023-11-21T03:57:17;74.95;;;57.13;;
39314;SDS011;28703;44.412;11.918;2023-11-21T03:59:43;77.40;;;58.60;;
39314;SDS011;28703;44.412;11.918;2023-11-21T04:02:08;75.65;;;58.10;;
39314;SDS011;28703;44.412;11.918;2023-11-21T04:04:37;64.38;;;53.33;;
39314;SDS011;28703;44.412;11.918;2023-11-21T04:07:04;65.78;;;54.90;;
39314;SDS011;28703;44.412;11.918;2023-11-21T04:09:30;65.72;;;56.13;;
39314;SDS011;28703;44.412;11.918;2023-11-21T04:11:56;63.20;;;54.03;;
39314;SDS011;28703;44.412;11.918;2023-11-21T04:14:22;67.72;;;56.72;;
39314;SDS011;28703;44.412;11.918;2023-11-21T04:16:48;68.97;;;57.10;;
39314;SDS011;28703;44.412;11.918;2023-11-21T04:19:14;71.68;;;57.72;;
39314;SDS011;28703;44.412;11.918;2023-11-21T04:21:43;73.30;;;58.05;;
39314;SDS011;28703;44.412;11.918;2023-11-21T04:24:09;71.72;;;55.25;;
39314;SDS011;28703;44.412;11.918;2023-11-21T04:26:35;70.28;;;57.58;;
39314;SDS011;28703;44.412;11.918;2023-11-21T04:29:01;69.65;;;56.72;;
39314;SDS011;28703;44.412;11.918;2023-11-21T04:31:28;69.40;;;55.50;;
39314;SDS011;28703;44.412;11.918;2023-11-21T04:33:54;70.25;;;57.00;;
39314;SDS011;28703;44.412;11.918;2023-11-21T04:36:20;68.20;;;56.65;;
39314;SDS011;28703;44.412;11.918;2023-11-21T04:38:45;68.68;;;56.08;;
39314;SDS011;28703;44.412;11.918;2023-11-21T04:41:12;69.15;;;56.83;;
39314;SDS011;28703;44.412;11.918;2023-11-21T04:43:38;74.93;;;58.08;;
39314;SDS011;28703;44.412;11.918;2023-11-21T04:46:03;78.47;;;60.20;;
39314;SDS011;28703;44.412;11.918;2023-11-21T04:48:29;69.28;;;58.05;;
39314;SDS011;28703;44.412;11.918;2023-11-21T04:50:55;68.63;;;57.13;;
39314;SDS011;28703;44.412;11.918;2023-11-21T04:53:21;69.35;;;57.47;;
39314;SDS011;28703;44.412;11.918;2023-11-21T04:55:47;66.00;;;55.80;;
39314;SDS011;28703;44.412;11.918;2023-11-21T04:58:13;71.60;;;57.58;;
39314;SDS011;28703;44.412;11.918;2023-11-21T05:00:39;65.40;;;56.22;;
39314;SDS011;28703;44.412;11.918;2023-11-21T05:03:06;72.50;;;56.53;;
39314;SDS011;28703;44.412;11.918;2023-11-21T05:05:32;73.70;;;56.38;;
39314;SDS011;28703;44.412;11.918;2023-11-21T05:08:01;69.72;;;55.53;;
39314;SDS011;28703;44.412;11.918;2023-11-21T05:10:28;72.97;;;58.83;;
39314;SDS011;28703;44.412;11.918;2023-11-21T05:12:54;68.55;;;56.92;;
39314;SDS011;28703;44.412;11.918;2023-11-21T05:15:20;70.35;;;55.85;;
39314;SDS011;28703;44.412;11.918;2023-11-21T05:17:46;67.85;;;57.35;;
39314;SDS011;28703;44.412;11.918;2023-11-21T05:20:17;73.60;;;57.53;;
39314;SDS011;28703;44.412;11.918;2023-11-21T05:22:46;70.22;;;57.53;;
39314;SDS011;28703;44.412;11.918;2023-11-21T05:25:13;69.70;;;56.10;;
39314;SDS011;28703;44.412;11.918;2023-11-21T05:27:39;73.45;;;57.95;;
39314;SDS011;28703;44.412;11.918;2023-11-21T05:30:05;73.82;;;57.80;;
39314;SDS011;28703;44.412;11.918;2023-11-21T05:32:38;68.45;;;56.28;;
39314;SDS011;28703;44.412;11.918;2023-11-21T05:35:04;70.55;;;56.28;;
39314;SDS011;28703;44.412;11.918;2023-11-21T05:37:37;70.40;;;58.47;;
39314;SDS011;28703;44.412;11.918;2023-11-21T05:40:06;73.72;;;59.15;;
39314;SDS011;28703;44.412;11.918;2023-11-21T05:42:33;73.25;;;54.45;;
39314;SDS011;28703;44.412;11.918;2023-11-21T05:45:00;76.60;;;59.67;;
39314;SDS011;28703;44.412;11.918;2023-11-21T05:47:43;72.72;;;58.72;;
39314;SDS011;28703;44.412;11.918;2023-11-21T05:50:12;70.18;;;58.72;;
39314;SDS011;28703;44.412;11.918;2023-11-21T05:52:43;69.47;;;57.33;;
39314;SDS011;28703;44.412;11.918;2023-11-21T05:55:11;82.10;;;59.20;;
39314;SDS011;28703;44.412;11.918;2023-11-21T05:57:37;68.28;;;56.00;;
39314;SDS011;28703;44.412;11.918;2023-11-21T06:00:05;72.10;;;57.90;;
39314;SDS011;28703;44.412;11.918;2023-11-21T06:02:39;69.10;;;58.72;;
39314;SDS011;28703;44.412;11.918;2023-11-21T06:05:09;67.18;;;57.10;;
39314;SDS011;28703;44.412;11.918;2023-11-21T06:07:35;68.10;;;56.70;;
39314;SDS011;28703;44.412;11.918;2023-11-21T06:10:02;68.55;;;56.20;;
39314;SDS011;28703;44.412;11.918;2023-11-21T06:12:31;69.38;;;58.22;;
39314;SDS011;28703;44.412;11.918;2023-11-21T06:15:02;73.95;;;59.08;;
39314;SDS011;28703;44.412;11.918;2023-11-21T06:17:37;71.15;;;57.85;;
39314;SDS011;28703;44.412;11.918;2023-11-21T06:20:05;75.75;;;61.88;;
39314;SDS011;28703;44.412;11.918;2023-11-21T06:22:41;77.80;;;63.35;;
39314;SDS011;28703;44.412;11.918;2023-11-21T06:25:08;69.90;;;57.20;;
39314;SDS011;28703;44.412;11.918;2023-11-21T06:27:37;67.55;;;56.72;;
39314;SDS011;28703;44.412;11.918;2023-11-21T06:30:04;71.20;;;58.00;;
39314;SDS011;28703;44.412;11.918;2023-11-21T06:32:31;68.28;;;56.45;;
39314;SDS011;28703;44.412;11.918;2023-11-21T06:34:57;72.85;;;59.78;;
39314;SDS011;28703;44.412;11.918;2023-11-21T06:37:26;68.00;;;56.67;;
39314;SDS011;28703;44.412;11.918;2023-11-21T06:39:54;57.60;;;50.72;;
39314;SDS011;28703;44.412;11.918;2023-11-21T06:42:21;71.03;;;57.58;;
39314;SDS011;28703;44.412;11.918;2023-11-21T06:44:49;68.22;;;56.35;;
39314;SDS011;28703;44.412;11.918;2023-11-21T06:47:17;71.95;;;58.90;;
39314;SDS011;28703;44.412;11.918;2023-11-21T06:49:45;69.88;;;58.47;;
39314;SDS011;28703;44.412;11.918;2023-11-21T06:52:13;71.22;;;59.03;;
39314;SDS011;28703;44.412;11.918;2023-11-21T06:54:39;70.85;;;56.90;;
39314;SDS011;28703;44.412;11.918;2023-11-21T06:57:05;75.05;;;61.70;;
39314;SDS011;28703;44.412;11.918;2023-11-21T06:59:30;67.40;;;56.35;;
39314;SDS011;28703;44.412;11.918;2023-11-21T07:01:57;78.15;;;59.60;;
39314;SDS011;28703;44.412;11.918;2023-11-21T07:04:23;71.97;;;58.60;;
39314;SDS011;28703;44.412;11.918;2023-11-21T07:06:50;72.00;;;58.72;;
39314;SDS011;28703;44.412;11.918;2023-11-21T07:09:17;71.65;;;57.88;;
39314;SDS011;28703;44.412;11.918;2023-11-21T07:11:45;70.70;;;59.35;;
39314;SDS011;28703;44.412;11.918;2023-11-21T07:14:13;71.55;;;57.97;;
39314;SDS011;28703;44.412;11.918;2023-11-21T07:16:39;75.82;;;60.75;;
39314;SDS011;28703;44.412;11.918;2023-11-21T07:19:06;79.57;;;62.85;;
39314;SDS011;28703;44.412;11.918;2023-11-21T07:21:35;78.68;;;59.45;;
39314;SDS011;28703;44.412;11.918;2023-11-21T07:24:02;78.03;;;60.00;;
39314;SDS011;28703;44.412;11.918;2023-11-21T07:26:29;80.80;;;63.13;;
39314;SDS011;28703;44.412;11.918;2023-11-21T07:28:56;82.03;;;61.78;;
39314;SDS011;28703;44.412;11.918;2023-11-21T07:31:22;77.05;;;63.42;;
39314;SDS011;28703;44.412;11.918;2023-11-21T07:33:49;81.60;;;60.55;;
39314;SDS011;28703;44.412;11.918;2023-11-21T07:36:16;74.63;;;61.35;;
39314;SDS011;28703;44.412;11.918;2023-11-21T07:38:48;77.93;;;60.95;;
39314;SDS011;28703;44.412;11.918;2023-11-21T07:41:15;75.60;;;61.30;;
39314;SDS011;28703;44.412;11.918;2023-11-21T07:43:41;77.18;;;62.28;;
39314;SDS011;28703;44.412;11.918;2023-11-21T07:46:08;77.70;;;64.28;;
39314;SDS011;28703;44.412;11.918;2023-11-21T07:48:34;72.45;;;60.40;;
39314;SDS011;28703;44.412;11.918;2023-11-21T07:51:02;75.65;;;63.35;;
39314;SDS011;28703;44.412;11.918;2023-11-21T07:53:32;74.07;;;62.97;;
39314;SDS011;28703;44.412;11.918;2023-11-21T07:56:08;75.78;;;63.08;;
39314;SDS011;28703;44.412;11.918;2023-11-21T07:58:35;80.50;;;63.90;;
39314;SDS011;28703;44.412;11.918;2023-11-21T08:01:01;71.53;;;60.72;;
39314;SDS011;28703;44.412;11.918;2023-11-21T08:03:29;77.05;;;61.03;;
39314;SDS011;28703;44.412;11.918;2023-11-21T08:05:59;73.88;;;63.80;;
39314;SDS011;28703;44.412;11.918;2023-11-21T08:08:25;86.15;;;68.20;;
39314;SDS011;28703;44.412;11.918;2023-11-21T08:10:51;86.10;;;67.53;;
39314;SDS011;28703;44.412;11.918;2023-11-21T08:13:26;90.00;;;68.60;;
39314;SDS011;28703;44.412;11.918;2023-11-21T08:15:56;83.57;;;66.07;;
39314;SDS011;28703;44.412;11.918;2023-11-21T08:18:27;76.70;;;64.93;;
39314;SDS011;28703;44.412;11.918;2023-11-21T08:20:54;82.05;;;68.15;;
39314;SDS011;28703;44.412;11.918;2023-11-21T08:23:20;78.93;;;66.60;;
39314;SDS011;28703;44.412;11.918;2023-11-21T08:25:50;91.07;;;68.90;;
39314;SDS011;28703;44.412;11.918;2023-11-21T08:28:16;88.28;;;68.75;;
39314;SDS011;28703;44.412;11.918;2023-11-21T08:30:42;76.47;;;65.93;;
39314;SDS011;28703;44.412;11.918;2023-11-21T08:33:09;83.50;;;64.97;;
39314;SDS011;28703;44.412;11.918;2023-11-21T08:35:36;88.03;;;69.35;;
39314;SDS011;28703;44.412;11.918;2023-11-21T08:38:02;83.28;;;68.05;;
39314;SDS011;28703;44.412;11.918;2023-11-21T08:40:28;79.97;;;64.80;;
39314;SDS011;28703;44.412;11.918;2023-11-21T08:42:54;86.97;;;71.00;;
39314;SDS011;28703;44.412;11.918;2023-11-21T08:45:21;85.10;;;68.35;;
39314;SDS011;28703;44.412;11.918;2023-11-21T08:47:47;88.40;;;70.78;;
39314;SDS011;28703;44.412;11.918;2023-11-21T08:50:13;81.80;;;66.15;;
39314;SDS011;28703;44.412;11.918;2023-11-21T08:52:40;85.68;;;69.57;;
39314;SDS011;28703;44.412;11.918;2023-11-21T08:55:07;84.05;;;69.45;;
39314;SDS011;28703;44.412;11.918;2023-11-21T08:57:37;83.97;;;68.47;;
39314;SDS011;28703;44.412;11.918;2023-11-21T09:00:07;88.93;;;69.57;;
39314;SDS011;28703;44.412;11.918;2023-11-21T09:02:36;89.30;;;68.85;;
39314;SDS011;28703;44.412;11.918;2023-11-21T09:05:03;91.35;;;70.32;;
39314;SDS011;28703;44.412;11.918;2023-11-21T09:07:32;83.60;;;68.38;;
39314;SDS011;28703;44.412;11.918;2023-11-21T09:09:58;94.93;;;71.72;;
39314;SDS011;28703;44.412;11.918;2023-11-21T09:12:24;85.75;;;70.78;;
39314;SDS011;28703;44.412;11.918;2023-11-21T09:14:52;85.55;;;68.97;;
39314;SDS011;28703;44.412;11.918;2023-11-21T09:17:19;88.05;;;68.60;;
39314;SDS011;28703;44.412;11.918;2023-11-21T09:19:44;90.90;;;71.57;;
39314;SDS011;28703;44.412;11.918;2023-11-21T09:22:15;86.82;;;69.88;;
39314;SDS011;28703;44.412;11.918;2023-11-21T09:24:41;81.28;;;69.65;;
39314;SDS011;28703;44.412;11.918;2023-11-21T09:27:07;78.03;;;67.57;;
39314;SDS011;28703;44.412;11.918;2023-11-21T09:29:35;89.28;;;72.32;;
39314;SDS011;28703;44.412;11.918;2023-11-21T09:32:02;81.47;;;68.47;;
39314;SDS011;28703;44.412;11.918;2023-11-21T09:34:28;89.40;;;72.15;;
39314;SDS011;28703;44.412;11.918;2023-11-21T09:36:54;82.85;;;68.25;;
39314;SDS011;28703;44.412;11.918;2023-11-21T09:39:19;86.70;;;70.28;;
39314;SDS011;28703;44.412;11.918;2023-11-21T09:41:52;84.93;;;69.90;;
39314;SDS011;28703;44.412;11.918;2023-11-21T09:44:35;87.50;;;72.18;;
39314;SDS011;28703;44.412;11.918;2023-11-21T09:47:21;91.50;;;72.40;;
39314;SDS011;28703;44.412;11.918;2023-11-21T09:49:48;84.85;;;69.13;;
39314;SDS011;28703;44.412;11.918;2023-11-21T09:52:39;87.07;;;71.38;;
39314;SDS011;28703;44.412;11.918;2023-11-21T09:55:14;84.30;;;69.90;;
39314;SDS011;28703;44.412;11.918;2023-11-21T09:57:45;87.80;;;73.15;;
39314;SDS011;28703;44.412;11.918;2023-11-21T10:00:13;88.28;;;69.90;;
39314;SDS011;28703;44.412;11.918;2023-11-21T10:02:42;84.05;;;69.88;;
39314;SDS011;28703;44.412;11.918;2023-11-21T10:05:09;83.80;;;70.85;;
39314;SDS011;28703;44.412;11.918;2023-11-21T10:07:37;90.20;;;72.05;;
39314;SDS011;28703;44.412;11.918;2023-11-21T10:10:07;93.32;;;72.65;;
39314;SDS011;28703;44.412;11.918;2023-11-21T10:12:34;87.35;;;71.38;;
39314;SDS011;28703;44.412;11.918;2023-11-21T10:15:01;90.60;;;73.20;;
39314;SDS011;28703;44.412;11.918;2023-11-21T10:17:31;88.10;;;72.30;;
39314;SDS011;28703;44.412;11.918;2023-11-21T10:20:07;86.50;;;68.70;;
39314;SDS011;28703;44.412;11.918;2023-11-21T10:22:40;92.70;;;74.60;;
39314;SDS011;28703;44.412;11.918;2023-11-21T10:25:09;87.25;;;73.45;;
39314;SDS011;28703;44.412;11.918;2023-11-21T10:27:38;88.47;;;71.63;;
39314;SDS011;28703;44.412;11.918;2023-11-21T10:30:05;92.20;;;74.25;;
39314;SDS011;28703;44.412;11.918;2023-11-21T10:32:38;88.45;;;73.88;;
39314;SDS011;28703;44.412;11.918;2023-11-21T10:35:06;91.05;;;71.47;;
39314;SDS011;28703;44.412;11.918;2023-11-21T10:37:41;97.13;;;74.55;;
39314;SDS011;28703;44.412;11.918;2023-11-21T10:40:09;95.75;;;73.75;;
39314;SDS011;28703;44.412;11.918;2023-11-21T10:42:39;93.43;;;73.77;;
39314;SDS011;28703;44.412;11.918;2023-11-21T10:45:06;91.40;;;70.80;;
39314;SDS011;28703;44.412;11.918;2023-11-21T10:47:38;93.90;;;73.55;;
39314;SDS011;28703;44.412;11.918;2023-11-21T10:50:06;93.53;;;71.55;;
39314;SDS011;28703;44.412;11.918;2023-11-21T10:52:36;92.00;;;73.38;;
39314;SDS011;28703;44.412;11.918;2023-11-21T10:55:25;94.72;;;73.38;;
39314;SDS011;28703;44.412;11.918;2023-11-21T10:57:54;87.88;;;72.05;;
39314;SDS011;28703;44.412;11.918;2023-11-21T11:00:23;97.60;;;75.43;;
39314;SDS011;28703;44.412;11.918;2023-11-21T11:02:53;98.07;;;78.03;;
39314;SDS011;28703;44.412;11.918;2023-11-21T11:05:21;94.93;;;76.60;;
39314;SDS011;28703;44.412;11.918;2023-11-21T11:08:31;95.30;;;77.22;;
39314;SDS011;28703;44.412;11.918;2023-11-21T11:10:38;95.15;;;71.53;;
39314;SDS011;28703;44.412;11.918;2023-11-21T11:13:03;95.28;;;76.97;;
39314;SDS011;28703;44.412;11.918;2023-11-21T11:15:31;99.85;;;79.32;;
39314;SDS011;28703;44.412;11.918;2023-11-21T11:17:58;95.43;;;77.60;;
39314;SDS011;28703;44.412;11.918;2023-11-21T11:20:26;106.18;;;79.50;;
39314;SDS011;28703;44.412;11.918;2023-11-21T11:23:13;97.72;;;77.65;;
39314;SDS011;28703;44.412;11.918;2023-11-21T11:26:45;105.95;;;80.97;;
39314;SDS011;28703;44.412;11.918;2023-11-21T11:29:08;101.32;;;80.03;;
39314;SDS011;28703;44.412;11.918;2023-11-21T11:37:42;107.90;;;86.55;;
39314;SDS011;28703;44.412;11.918;2023-11-21T11:40:11;109.65;;;86.07;;
39314;SDS011;28703;44.412;11.918;2023-11-21T11:42:37;108.35;;;86.05;;
39314;SDS011;28703;44.412;11.918;2023-11-21T11:45:14;110.38;;;88.82;;
39314;SDS011;28703;44.412;11.918;2023-11-21T11:47:42;105.22;;;86.57;;
39314;SDS011;28703;44.412;11.918;2023-11-21T11:50:10;111.70;;;86.97;;
39314;SDS011;28703;44.412;11.918;2023-11-21T11:52:43;107.45;;;84.20;;
39314;SDS011;28703;44.412;11.918;2023-11-21T11:55:15;104.95;;;83.15;;
39314;SDS011;28703;44.412;11.918;2023-11-21T11:57:45;102.65;;;85.57;;
39314;SDS011;28703;44.412;11.918;2023-11-21T12:00:19;98.60;;;79.47;;
39314;SDS011;28703;44.412;11.918;2023-11-21T12:02:48;108.20;;;83.88;;
39314;SDS011;28703;44.412;11.918;2023-11-21T12:05:19;103.00;;;81.78;;
39314;SDS011;28703;44.412;11.918;2023-11-21T12:07:50;100.90;;;79.63;;
39314;SDS011;28703;44.412;11.918;2023-11-21T12:10:21;103.35;;;81.75;;
39314;SDS011;28703;44.412;11.918;2023-11-21T12:12:50;99.63;;;78.32;;
39314;SDS011;28703;44.412;11.918;2023-11-21T12:15:18;96.30;;;79.25;;
39314;SDS011;28703;44.412;11.918;2023-11-21T12:17:45;96.95;;;77.30;;
39314;SDS011;28703;44.412;11.918;2023-11-21T12:20:15;94.53;;;78.43;;
39314;SDS011;28703;44.412;11.918;2023-11-21T12:22:44;100.88;;;79.25;;
39314;SDS011;28703;44.412;11.918;2023-11-21T12:25:14;100.47;;;78.70;;
39314;SDS011;28703;44.412;11.918;2023-11-21T12:27:51;97.30;;;76.72;;
39314;SDS011;28703;44.412;11.918;2023-11-21T12:30:19;95.55;;;76.15;;
39314;SDS011;28703;44.412;11.918;2023-11-21T12:32:54;97.43;;;75.15;;
39314;SDS011;28703;44.412;11.918;2023-11-21T12:35:24;93.60;;;73.50;;
39314;SDS011;28703;44.412;11.918;2023-11-21T12:37:55;88.18;;;72.20;;
39314;SDS011;28703;44.412;11.918;2023-11-21T12:40:24;91.22;;;71.78;;
39314;SDS011;28703;44.412;11.918;2023-11-21T12:42:55;95.13;;;71.88;;
39314;SDS011;28703;44.412;11.918;2023-11-21T12:45:23;92.55;;;71.97;;
39314;SDS011;28703;44.412;11.918;2023-11-21T12:47:56;90.55;;;69.88;;
39314;SDS011;28703;44.412;11.918;2023-11-21T12:50:29;90.80;;;70.47;;
39314;SDS011;28703;44.412;11.918;2023-11-21T12:53:34;86.03;;;66.95;;
39314;SDS011;28703;44.412;11.918;2023-11-21T12:55:51;91.72;;;69.85;;
39314;SDS011;28703;44.412;11.918;2023-11-21T12:58:20;88.68;;;67.63;;
39314;SDS011;28703;44.412;11.918;2023-11-21T13:00:50;93.75;;;71.35;;
39314;SDS011;28703;44.412;11.918;2023-11-21T13:03:19;85.05;;;67.07;;
39314;SDS011;28703;44.412;11.918;2023-11-21T13:08:19;89.82;;;70.07;;
39314;SDS011;28703;44.412;11.918;2023-11-21T13:10:49;89.80;;;72.05;;
39314;SDS011;28703;44.412;11.918;2023-11-21T13:13:16;92.47;;;73.15;;
39314;SDS011;28703;44.412;11.918;2023-11-21T13:15:50;90.95;;;70.65;;
39314;SDS011;28703;44.412;11.918;2023-11-21T13:18:28;94.68;;;71.65;;
39314;SDS011;28703;44.412;11.918;2023-11-21T13:21:00;93.78;;;74.45;;
39314;SDS011;28703;44.412;11.918;2023-11-21T13:23:42;92.47;;;72.38;;
39314;SDS011;28703;44.412;11.918;2023-11-21T13:26:10;93.55;;;73.32;;
39314;SDS011;28703;44.412;11.918;2023-11-21T13:28:37;92.03;;;72.03;;
39314;SDS011;28703;44.412;11.918;2023-11-21T13:31:06;91.60;;;73.03;;
39314;SDS011;28703;44.412;11.918;2023-11-21T13:33:37;97.05;;;73.68;;
39314;SDS011;28703;44.412;11.918;2023-11-21T13:36:05;90.65;;;73.07;;
39314;SDS011;28703;44.412;11.918;2023-11-21T13:38:34;95.63;;;75.50;;
39314;SDS011;28703;44.412;11.918;2023-11-21T13:41:02;94.72;;;75.03;;
39314;SDS011;28703;44.412;11.918;2023-11-21T13:43:32;85.68;;;72.85;;
39314;SDS011;28703;44.412;11.918;2023-11-21T13:46:02;96.05;;;75.60;;
39314;SDS011;28703;44.412;11.918;2023-11-21T13:48:44;98.55;;;74.55;;
39314;SDS011;28703;44.412;11.918;2023-11-21T13:51:17;86.95;;;67.85;;
39314;SDS011;28703;44.412;11.918;2023-11-21T13:53:47;85.57;;;67.35;;
39314;SDS011;28703;44.412;11.918;2023-11-21T13:56:15;79.20;;;62.85;;
39314;SDS011;28703;44.412;11.918;2023-11-21T13:58:49;86.97;;;66.35;;
39314;SDS011;28703;44.412;11.918;2023-11-21T14:01:19;79.40;;;61.53;;
39314;SDS011;28703;44.412;11.918;2023-11-21T14:03:55;74.30;;;57.55;;
39314;SDS011;28703;44.412;11.918;2023-11-21T14:06:48;74.43;;;56.88;;
39314;SDS011;28703;44.412;11.918;2023-11-21T14:09:17;71.32;;;57.83;;
39314;SDS011;28703;44.412;11.918;2023-11-21T14:12:00;69.45;;;55.85;;
39314;SDS011;28703;44.412;11.918;2023-11-21T14:14:31;69.73;;;58.50;;
39314;SDS011;28703;44.412;11.918;2023-11-21T14:16:57;67.32;;;57.30;;
39314;SDS011;28703;44.412;11.918;2023-11-21T14:19:24;80.65;;;58.97;;
39314;SDS011;28703;44.412;11.918;2023-11-21T14:21:56;75.72;;;58.53;;
39314;SDS011;28703;44.412;11.918;2023-11-21T14:24:22;71.13;;;59.75;;
39314;SDS011;28703;44.412;11.918;2023-11-21T14:26:49;73.30;;;57.80;;